Flight Track Log - Related Links

Times and Time Zones

All times are in EDT time to prevent confusion due to time zone crossing. See the N680AN flight status page for this flight to view local times or setup timezone preferences in your user account.

Time Position Orientation Groundspeed Altitude Reporting Facility
EDT Latitude Longitude Course Direction KTS MPH feet Rate Location/Type
Thu 10:05:54 PM 32.8097 -97.0303 90° East 188 216 5,100  Level Fort Worth Center
Thu 10:06:00 PM 32.6833 -96.9093 90° East  Level FlightAware Approximate
Thu 10:06:54 PM 32.7681 -96.9861 138° Southeast 213 245 7,900  Level Fort Worth Center
Thu 10:07:00 PM 32.7004 -96.7490 68° East  Level FlightAware Approximate
Thu 10:07:54 PM 32.7572 -96.8922 98° East 228 262 10,700  Level Fort Worth Center
Thu 10:08:00 PM 32.7512 -96.5964 68° East  Level FlightAware Approximate
Thu 10:08:54 PM 32.7817 -96.7708 76° East 276 318 13,400  Level Fort Worth Center
Thu 10:09:00 PM 32.8067 -96.4460 65° Northeast  Level FlightAware Approximate
Thu 10:09:54 PM 32.8039 -96.6619 76° East 347 399 15,900  Level Fort Worth Center
Thu 10:10:00 PM 32.8546 -96.2935 77° East  Level FlightAware Approximate
Thu 10:10:54 PM 32.8322 -96.5183 77° East 398 458 17,800  Level Fort Worth Center
Thu 10:11:00 PM 32.8667 -96.1308 90° East  Level FlightAware Approximate
Thu 10:11:54 PM 32.8544 -96.3944 78° East 418 481 20,200  Level Fort Worth Center
Thu 10:12:54 PM 32.8697 -96.2361 83° East 432 497 22,600 2,250 Climbing Fort Worth Center
Thu 10:13:54 PM 32.8725 -96.0925 89° East 457 526 24,700 2,000 Climbing Fort Worth Center
Thu 10:14:54 PM 32.8747 -95.9244 89° East 463 533 26,600 1,750 Climbing Fort Worth Center
Thu 10:15:54 PM 32.8789 -95.7586 88° East 477 549 28,200 1,550 Climbing Fort Worth Center
Thu 10:16:54 PM 32.8786 -95.5903 90° East 494 568 29,700 1,450 Climbing Fort Worth Center
Thu 10:17:54 PM 32.8822 -95.4147 89° East 518 596 31,100 1,550 Climbing Fort Worth Center
Thu 10:18:54 PM 32.8922 -95.2636 85° East 518 596 32,800 1,700 Climbing Fort Worth Center
Thu 10:19:54 PM 32.9183 -95.0872 80° East 518 596 34,500 1,600 Climbing Fort Worth Center
Thu 10:20:54 PM 32.9486 -94.9181 78° East 524 603 36,000 1,400 Climbing Fort Worth Center
Thu 10:21:54 PM 32.9761 -94.7414 79° East 524 603 37,300 1,200 Climbing Fort Worth Center
Thu 10:22:54 PM 32.9994 -94.5650 81° East 524 603 38,400 850 Climbing Fort Worth Center
Thu 10:23:54 PM 33.0289 -94.3931 78° East 524 603 39,000 300 Climbing Fort Worth Center
Thu 10:24:54 PM 33.0517 -94.2189 81° East 529 609 39,000  Level Fort Worth Center
Thu 10:25:54 PM 33.0764 -94.0419 80° East 534 615 39,000  Level Fort Worth Center
Thu 10:26:54 PM 33.1042 -93.8450 80° East 534 615 39,000  Level Fort Worth Center
Thu 10:27:54 PM 33.1303 -93.6678 80° East 539 620 39,000  Level Fort Worth Center
Thu 10:28:54 PM 33.1544 -93.4956 80° East 539 620 39,000  Level Fort Worth Center
Thu 10:29:54 PM 33.1800 -93.3208 80° East 539 620 39,000  Level Fort Worth Center
Thu 10:30:54 PM 33.2036 -93.1458 81° East 534 615 39,000  Level Fort Worth Center
Thu 10:31:54 PM 33.2267 -92.9733 81° East 528 608 39,000  Level Fort Worth Center
Thu 10:32:54 PM 33.2517 -92.7933 81° East 528 608 39,000  Level Fort Worth Center
Thu 10:33:54 PM 33.2344 -92.6181 97° East 523 602 39,000  Level Fort Worth Center
Thu 10:34:54 PM 33.1983 -92.4411 104° East 528 608 39,000  Level Fort Worth Center
Thu 10:36:09 PM 33.1486 -92.2281 106° East 551 634 39,000  Level Memphis Center
Thu 10:37:09 PM 33.1136 -92.0536 103° East 546 628 39,000  Level Memphis Center
Thu 10:38:09 PM 33.0739 -91.8769 105° East 546 628 39,000  Level Memphis Center
Thu 10:39:09 PM 33.0364 -91.7028 104° East 546 628 39,000  Level Memphis Center
Thu 10:40:09 PM 33.0006 -91.5289 104° East 546 628 39,000  Level Memphis Center
Thu 10:41:09 PM 32.9603 -91.3550 105° East 541 623 39,000  Level Memphis Center
Thu 10:42:09 PM 32.9239 -91.1839 104° East 534 615 39,000  Level Memphis Center
Thu 10:43:09 PM 32.8853 -91.0103 105° East 534 615 39,000  Level Memphis Center
Thu 10:44:09 PM 32.8483 -90.8394 104° East 534 615 39,000  Level Memphis Center
Thu 10:45:09 PM 32.8114 -90.6639 104° East 534 615 39,000  Level Memphis Center
Thu 10:46:09 PM 32.7719 -90.4956 106° East 534 615 39,000  Level Memphis Center
Thu 10:47:09 PM 32.7344 -90.3253 105° East 534 615 39,000  Level Memphis Center
Thu 10:48:09 PM 32.6947 -90.1525 105° East 534 615 39,000  Level Memphis Center
Thu 10:49:09 PM 32.6589 -89.9994 106° East 534 615 39,000  Level Memphis Center
Thu 10:50:09 PM 32.6206 -89.8269 105° East 534 615 39,000  Level Memphis Center
Thu 10:51:09 PM 32.5781 -89.6572 107° East 534 615 39,000  Level Memphis Center
Thu 10:52:09 PM 32.5394 -89.4850 105° East 534 615 39,000  Level Memphis Center
Thu 10:53:09 PM 32.5006 -89.3153 105° East 534 615 39,000  Level Memphis Center
Thu 10:54:09 PM 32.4614 -89.1458 105° East 529 609 39,000  Level Memphis Center
Thu 10:55:09 PM 32.4200 -88.9767 106° East 534 615 39,000  Level Memphis Center
Thu 10:56:09 PM 32.3803 -88.8050 105° East 534 615 39,000  Level Memphis Center
Thu 10:57:09 PM 32.3383 -88.6361 106° East 534 615 39,000  Level Memphis Center
Thu 10:59:29 PM 32.2303 -88.2372 108° East 535 616 39,000  Level Atlanta Center
Thu 11:00:29 PM 32.1881 -88.0711 107° East 535 616 39,000  Level Atlanta Center
Thu 11:01:29 PM 32.1431 -87.9069 108° East 527 606 39,000  Level Atlanta Center
Thu 11:02:29 PM 32.0981 -87.7408 108° East 527 606 39,000  Level Atlanta Center
Thu 11:03:29 PM 32.0486 -87.5747 109° East 527 606 39,000  Level Atlanta Center
Thu 11:04:29 PM 32.0033 -87.4089 108° East 532 612 39,000  Level Atlanta Center
Thu 11:05:29 PM 31.9597 -87.2431 107° East 527 606 39,000  Level Atlanta Center
Thu 11:06:29 PM 31.9136 -87.0800 108° East 527 606 39,000  Level Atlanta Center
Thu 11:07:29 PM 31.8694 -86.9294 109° East 527 606 39,000  Level Atlanta Center
Thu 11:09:15 PM 31.7753 -86.6267 110° East 523 602 39,000  Level Jacksonville Center
Thu 11:10:15 PM 31.7061 -86.4944 122° Southeast 518 596 39,000  Level Jacksonville Center
Thu 11:11:15 PM 31.6267 -86.3497 123° Southeast 523 602 39,000  Level Jacksonville Center
Thu 11:12:16 PM 31.5428 -86.2078 125° Southeast 523 602 39,000  Level Jacksonville Center
Thu 11:13:16 PM 31.4608 -86.0686 125° Southeast 525 604 39,000  Level Jacksonville Center
Thu 11:14:16 PM 31.3764 -85.9294 125° Southeast 525 604 39,000  Level Jacksonville Center
Thu 11:15:16 PM 31.2942 -85.7906 125° Southeast 525 604 39,000  Level Jacksonville Center
Thu 11:16:15 PM 31.2139 -85.6447 123° Southeast 525 604 39,000  Level Jacksonville Center
Thu 11:17:15 PM 31.1311 -85.5064 125° Southeast 525 604 39,000  Level Jacksonville Center
Thu 11:18:16 PM 31.0464 -85.3633 125° Southeast 530 610 39,000  Level Jacksonville Center
Thu 11:19:16 PM 30.9553 -85.2158 126° Southeast 523 602 39,000  Level Jacksonville Center
Thu 11:20:15 PM 30.8700 -85.0733 125° Southeast 523 602 39,000 -202 Level Jacksonville Center
Thu 11:21:15 PM 30.7847 -84.9333 125° Southeast 523 602 38,600 -650 Descending Jacksonville Center
Thu 11:22:15 PM 30.7011 -84.7939 125° Southeast 523 602 37,700 -900 Descending Jacksonville Center
Thu 11:23:15 PM 30.6175 -84.6572 125° Southeast 523 602 36,800 -893 Descending Jacksonville Center
Thu 11:24:16 PM 30.5317 -84.5206 126° Southeast 523 602 35,900 -850 Descending Jacksonville Center
Thu 11:25:15 PM 30.4478 -84.3842 125° Southeast 523 602 35,100 -454 Descending Jacksonville Center
Thu 11:26:15 PM 30.3636 -84.2528 127° Southeast 523 602 35,000 -50 Descending Jacksonville Center
Thu 11:27:15 PM 30.2814 -84.1169 125° Southeast 523 602 35,000 -150 Level Jacksonville Center
Thu 11:28:15 PM 30.1972 -83.9814 126° Southeast 523 602 34,700 -500 Descending Jacksonville Center
Thu 11:29:15 PM 30.1147 -83.8458 125° Southeast 523 602 34,000 -744 Descending Jacksonville Center
Thu 11:30:16 PM 30.0300 -83.7131 126° Southeast 523 602 33,200 -793 Descending Jacksonville Center
Thu 11:31:16 PM 29.9453 -83.5806 126° Southeast 523 602 32,400 -807 Descending Jacksonville Center
Thu 11:32:15 PM 29.8603 -83.4458 126° Southeast 523 602 31,600 -750 Descending Jacksonville Center
Thu 11:33:16 PM 29.7753 -83.3136 127° Southeast 523 602 30,900 -744 Descending Jacksonville Center
Thu 11:34:16 PM 29.6919 -83.1769 125° Southeast 528 608 30,100 -1,000 Descending Jacksonville Center
Thu 11:35:16 PM 29.6047 -83.0431 127° Southeast 520 598 28,900 -1,563 Descending Jacksonville Center
Thu 11:36:15 PM 29.5169 -82.9092 127° Southeast 521 600 27,000 -1,966 Descending Jacksonville Center
Thu 11:37:15 PM 29.4419 -82.7900 126° Southeast 521 600 25,000 -2,100 Descending Jacksonville Center
Thu 11:38:15 PM 29.3622 -82.6686 127° Southeast 507 583 22,800 -2,200 Descending Jacksonville Center
Thu 11:39:15 PM 29.2889 -82.5519 126° Southeast 478 550 20,600 -2,083 Descending Jacksonville Center
Thu 11:40:16 PM 29.2136 -82.4381 127° Southeast 461 531 18,600 -1,884 Descending Jacksonville Center
Thu 11:41:16 PM 29.1442 -82.3292 126° Southeast 442 509 16,800 -1,900 Descending Jacksonville Center
Thu 11:42:16 PM 29.0706 -82.2228 128° Southeast 436 502 14,800 -1,950 Descending Jacksonville Center
Thu 11:43:16 PM 29.0053 -82.1161 125° Southeast 422 486 12,900 -1,850 Descending Jacksonville Center
Thu 11:44:16 PM 28.9317 -82.0031 127° Southeast 416 479 11,100 -950 Descending Jacksonville Center
Thu 11:45:16 PM 28.8725 -81.9133 127° Southeast 391 450 11,000 -429 Descending Jacksonville Center
Thu 11:45:54 PM 28.8500 -81.8667 119° Southeast 336 387 10,400 -1,041 Descending Orlando TRACON
Thu 11:46:54 PM 28.8000 -81.7833 124° Southeast 297 342 9,300 -1,350 Descending Orlando TRACON
Thu 11:47:54 PM 28.7667 -81.6833 111° Southeast 295 339 7,700 -1,550 Descending Orlando TRACON
Thu 11:48:54 PM 28.7333 -81.6000 115° Southeast 287 330 6,200 -1,400 Descending Orlando TRACON
Thu 11:49:54 PM 28.7167 -81.5167 103° East 268 308 4,900 -950 Descending Orlando TRACON
Thu 11:50:54 PM 28.6833 -81.4500 120° Southeast 233 268 4,300 -850 Descending Orlando TRACON
Thu 11:51:54 PM 28.6500 -81.4000 127° Southeast 221 254 3,200 -850 Descending Orlando TRACON
Thu 11:52:54 PM 28.6000 -81.3667 150° Southeast 208 239 2,600 -600 Descending Orlando TRACON

Login

Don't have an account? Register now (free) for customized features, flight alerts, and more!